sensor_id;sensor_type;location;lat;lon;timestamp;P1;durP1;ratioP1;P2;durP2;ratioP2
20084;SDS011;10202;48.474;9.138;2023-11-18T00:00:34;2.08;;;1.40;;
20084;SDS011;10202;48.474;9.138;2023-11-18T00:02:59;2.55;;;1.60;;
20084;SDS011;10202;48.474;9.138;2023-11-18T00:05:25;2.08;;;1.40;;
20084;SDS011;10202;48.474;9.138;2023-11-18T00:07:50;1.20;;;1.10;;
20084;SDS011;10202;48.474;9.138;2023-11-18T00:10:16;1.25;;;1.10;;
20084;SDS011;10202;48.474;9.138;2023-11-18T00:12:42;1.40;;;1.20;;
20084;SDS011;10202;48.474;9.138;2023-11-18T00:15:08;1.20;;;1.00;;
20084;SDS011;10202;48.474;9.138;2023-11-18T00:17:35;2.08;;;0.85;;
20084;SDS011;10202;48.474;9.138;2023-11-18T00:20:02;1.42;;;1.02;;
20084;SDS011;10202;48.474;9.138;2023-11-18T00:22:35;1.05;;;0.95;;
20084;SDS011;10202;48.474;9.138;2023-11-18T00:25:01;0.90;;;0.90;;
20084;SDS011;10202;48.474;9.138;2023-11-18T00:27:30;0.90;;;0.90;;
20084;SDS011;10202;48.474;9.138;2023-11-18T00:29:56;1.02;;;0.80;;
20084;SDS011;10202;48.474;9.138;2023-11-18T00:32:21;1.45;;;0.85;;
20084;SDS011;10202;48.474;9.138;2023-11-18T00:34:47;0.90;;;0.90;;
20084;SDS011;10202;48.474;9.138;2023-11-18T00:37:13;1.77;;;0.88;;
20084;SDS011;10202;48.474;9.138;2023-11-18T00:39:41;0.88;;;0.88;;
20084;SDS011;10202;48.474;9.138;2023-11-18T00:42:06;0.90;;;0.90;;
20084;SDS011;10202;48.474;9.138;2023-11-18T00:44:32;0.85;;;0.85;;
20084;SDS011;10202;48.474;9.138;2023-11-18T00:46:58;1.25;;;1.08;;
20084;SDS011;10202;48.474;9.138;2023-11-18T00:49:26;2.35;;;1.00;;
20084;SDS011;10202;48.474;9.138;2023-11-18T00:51:51;1.70;;;0.90;;
20084;SDS011;10202;48.474;9.138;2023-11-18T00:54:17;0.98;;;0.80;;
20084;SDS011;10202;48.474;9.138;2023-11-18T00:56:42;1.27;;;1.00;;
20084;SDS011;10202;48.474;9.138;2023-11-18T00:59:07;1.15;;;1.05;;
20084;SDS011;10202;48.474;9.138;2023-11-18T01:01:33;0.80;;;0.80;;
20084;SDS011;10202;48.474;9.138;2023-11-18T01:03:58;1.05;;;0.95;;
20084;SDS011;10202;48.474;9.138;2023-11-18T01:06:25;1.00;;;0.90;;
20084;SDS011;10202;48.474;9.138;2023-11-18T01:08:51;1.08;;;0.98;;
20084;SDS011;10202;48.474;9.138;2023-11-18T01:11:21;1.02;;;1.00;;
20084;SDS011;10202;48.474;9.138;2023-11-18T01:13:49;1.08;;;0.98;;
20084;SDS011;10202;48.474;9.138;2023-11-18T01:16:15;1.48;;;1.00;;
20084;SDS011;10202;48.474;9.138;2023-11-18T01:18:41;1.48;;;1.08;;
20084;SDS011;10202;48.474;9.138;2023-11-18T01:21:07;1.23;;;1.00;;
20084;SDS011;10202;48.474;9.138;2023-11-18T01:23:36;0.85;;;0.85;;
20084;SDS011;10202;48.474;9.138;2023-11-18T01:26:05;0.80;;;0.80;;
20084;SDS011;10202;48.474;9.138;2023-11-18T01:28:33;1.00;;;0.90;;
20084;SDS011;10202;48.474;9.138;2023-11-18T01:31:02;1.10;;;0.90;;
20084;SDS011;10202;48.474;9.138;2023-11-18T01:33:35;1.30;;;0.95;;
20084;SDS011;10202;48.474;9.138;2023-11-18T01:36:03;1.10;;;1.00;;
20084;SDS011;10202;48.474;9.138;2023-11-18T01:38:29;1.17;;;0.90;;
20084;SDS011;10202;48.474;9.138;2023-11-18T01:40:56;0.80;;;0.80;;
20084;SDS011;10202;48.474;9.138;2023-11-18T01:43:22;1.02;;;1.00;;
20084;SDS011;10202;48.474;9.138;2023-11-18T01:45:47;1.33;;;1.23;;
20084;SDS011;10202;48.474;9.138;2023-11-18T01:48:13;1.17;;;0.90;;
20084;SDS011;10202;48.474;9.138;2023-11-18T01:50:40;1.35;;;1.25;;
20084;SDS011;10202;48.474;9.138;2023-11-18T01:53:07;1.30;;;1.13;;
20084;SDS011;10202;48.474;9.138;2023-11-18T01:55:34;1.75;;;1.45;;
20084;SDS011;10202;48.474;9.138;2023-11-18T01:58:00;1.83;;;1.50;;
20084;SDS011;10202;48.474;9.138;2023-11-18T02:00:36;1.88;;;1.40;;
20084;SDS011;10202;48.474;9.138;2023-11-18T02:03:06;1.85;;;1.40;;
20084;SDS011;10202;48.474;9.138;2023-11-18T02:05:33;2.08;;;1.70;;
20084;SDS011;10202;48.474;9.138;2023-11-18T02:08:01;1.63;;;1.38;;
20084;SDS011;10202;48.474;9.138;2023-11-18T02:10:29;1.60;;;1.25;;
20084;SDS011;10202;48.474;9.138;2023-11-18T02:15:54;1.33;;;1.20;;
20084;SDS011;10202;48.474;9.138;2023-11-18T02:18:25;1.50;;;1.40;;
20084;SDS011;10202;48.474;9.138;2023-11-18T02:20:54;3.28;;;1.67;;
20084;SDS011;10202;48.474;9.138;2023-11-18T02:23:22;1.45;;;1.35;;
20084;SDS011;10202;48.474;9.138;2023-11-18T02:25:48;2.83;;;1.60;;
20084;SDS011;10202;48.474;9.138;2023-11-18T02:28:17;1.75;;;1.65;;
20084;SDS011;10202;48.474;9.138;2023-11-18T02:30:43;2.03;;;1.60;;
20084;SDS011;10202;48.474;9.138;2023-11-18T02:36:05;1.95;;;1.63;;
20084;SDS011;10202;48.474;9.138;2023-11-18T02:38:39;1.45;;;1.27;;
20084;SDS011;10202;48.474;9.138;2023-11-18T02:41:09;1.63;;;1.45;;
20084;SDS011;10202;48.474;9.138;2023-11-18T02:43:37;3.33;;;1.70;;
20084;SDS011;10202;48.474;9.138;2023-11-18T02:46:05;1.63;;;1.40;;
20084;SDS011;10202;48.474;9.138;2023-11-18T02:48:32;1.80;;;1.70;;
20084;SDS011;10202;48.474;9.138;2023-11-18T02:51:01;2.55;;;1.88;;
20084;SDS011;10202;48.474;9.138;2023-11-18T02:53:29;3.25;;;1.60;;
20084;SDS011;10202;48.474;9.138;2023-11-18T02:55:55;1.50;;;1.40;;
20084;SDS011;10202;48.474;9.138;2023-11-18T02:58:30;2.45;;;1.40;;
20084;SDS011;10202;48.474;9.138;2023-11-18T03:00:56;1.55;;;1.30;;
20084;SDS011;10202;48.474;9.138;2023-11-18T03:03:22;2.35;;;1.40;;
20084;SDS011;10202;48.474;9.138;2023-11-18T03:05:47;2.00;;;1.58;;
20084;SDS011;10202;48.474;9.138;2023-11-18T03:08:15;1.60;;;1.40;;
20084;SDS011;10202;48.474;9.138;2023-11-18T03:10:43;1.42;;;1.23;;
20084;SDS011;10202;48.474;9.138;2023-11-18T03:13:10;1.85;;;1.50;;
20084;SDS011;10202;48.474;9.138;2023-11-18T03:15:37;1.48;;;1.13;;
20084;SDS011;10202;48.474;9.138;2023-11-18T03:18:04;1.67;;;1.45;;
20084;SDS011;10202;48.474;9.138;2023-11-18T03:20:31;1.58;;;1.20;;
20084;SDS011;10202;48.474;9.138;2023-11-18T03:23:00;1.20;;;1.10;;
20084;SDS011;10202;48.474;9.138;2023-11-18T03:25:27;1.55;;;1.20;;
20084;SDS011;10202;48.474;9.138;2023-11-18T03:27:55;1.45;;;1.10;;
20084;SDS011;10202;48.474;9.138;2023-11-18T03:30:20;1.50;;;1.30;;
20084;SDS011;10202;48.474;9.138;2023-11-18T03:32:46;1.60;;;0.98;;
20084;SDS011;10202;48.474;9.138;2023-11-18T03:35:11;1.13;;;1.00;;
20084;SDS011;10202;48.474;9.138;2023-11-18T03:37:38;0.88;;;0.88;;
20084;SDS011;10202;48.474;9.138;2023-11-18T03:40:09;1.10;;;1.00;;
20084;SDS011;10202;48.474;9.138;2023-11-18T03:42:39;0.80;;;0.80;;
20084;SDS011;10202;48.474;9.138;2023-11-18T03:45:05;1.33;;;0.80;;
20084;SDS011;10202;48.474;9.138;2023-11-18T03:47:31;1.20;;;1.10;;
20084;SDS011;10202;48.474;9.138;2023-11-18T03:49:57;0.80;;;0.80;;
20084;SDS011;10202;48.474;9.138;2023-11-18T03:52:23;1.67;;;1.00;;
20084;SDS011;10202;48.474;9.138;2023-11-18T03:54:48;1.45;;;0.95;;
20084;SDS011;10202;48.474;9.138;2023-11-18T03:57:16;2.08;;;0.90;;
20084;SDS011;10202;48.474;9.138;2023-11-18T03:59:42;1.25;;;1.15;;
20084;SDS011;10202;48.474;9.138;2023-11-18T04:02:07;1.10;;;1.00;;
20084;SDS011;10202;48.474;9.138;2023-11-18T04:04:34;1.38;;;1.27;;
20084;SDS011;10202;48.474;9.138;2023-11-18T04:07:01;1.52;;;1.10;;
20084;SDS011;10202;48.474;9.138;2023-11-18T04:09:30;1.60;;;1.13;;
20084;SDS011;10202;48.474;9.138;2023-11-18T04:11:56;1.30;;;1.20;;
20084;SDS011;10202;48.474;9.138;2023-11-18T04:14:22;1.48;;;1.38;;
20084;SDS011;10202;48.474;9.138;2023-11-18T04:16:48;2.33;;;1.40;;
20084;SDS011;10202;48.474;9.138;2023-11-18T04:19:17;5.85;;;1.48;;
20084;SDS011;10202;48.474;9.138;2023-11-18T04:21:43;1.30;;;1.20;;
20084;SDS011;10202;48.474;9.138;2023-11-18T04:24:13;1.00;;;1.00;;
20084;SDS011;10202;48.474;9.138;2023-11-18T04:26:40;1.92;;;1.38;;
20084;SDS011;10202;48.474;9.138;2023-11-18T04:29:05;1.30;;;1.20;;
20084;SDS011;10202;48.474;9.138;2023-11-18T04:31:31;1.20;;;1.10;;
20084;SDS011;10202;48.474;9.138;2023-11-18T04:33:56;1.10;;;1.00;;
20084;SDS011;10202;48.474;9.138;2023-11-18T04:36:22;3.03;;;1.50;;
20084;SDS011;10202;48.474;9.138;2023-11-18T04:38:51;1.58;;;1.40;;
20084;SDS011;10202;48.474;9.138;2023-11-18T04:41:19;1.38;;;1.20;;
20084;SDS011;10202;48.474;9.138;2023-11-18T04:43:48;3.03;;;1.25;;
20084;SDS011;10202;48.474;9.138;2023-11-18T04:46:14;1.40;;;1.30;;
20084;SDS011;10202;48.474;9.138;2023-11-18T04:48:40;4.55;;;1.15;;
20084;SDS011;10202;48.474;9.138;2023-11-18T04:51:05;1.10;;;1.10;;
20084;SDS011;10202;48.474;9.138;2023-11-18T04:53:31;2.60;;;1.20;;
20084;SDS011;10202;48.474;9.138;2023-11-18T04:55:57;1.85;;;1.00;;
20084;SDS011;10202;48.474;9.138;2023-11-18T04:58:25;1.73;;;1.10;;
20084;SDS011;10202;48.474;9.138;2023-11-18T05:00:51;1.20;;;1.10;;
20084;SDS011;10202;48.474;9.138;2023-11-18T05:03:16;1.70;;;1.30;;
20084;SDS011;10202;48.474;9.138;2023-11-18T05:05:42;0.82;;;0.82;;
20084;SDS011;10202;48.474;9.138;2023-11-18T05:08:08;1.85;;;1.15;;
20084;SDS011;10202;48.474;9.138;2023-11-18T05:10:46;1.83;;;1.45;;
20084;SDS011;10202;48.474;9.138;2023-11-18T05:13:14;1.20;;;1.10;;
20084;SDS011;10202;48.474;9.138;2023-11-18T05:15:44;1.57;;;1.40;;
20084;SDS011;10202;48.474;9.138;2023-11-18T05:18:13;1.42;;;1.30;;
20084;SDS011;10202;48.474;9.138;2023-11-18T05:20:41;2.60;;;1.50;;
20084;SDS011;10202;48.474;9.138;2023-11-18T05:23:07;1.65;;;1.48;;
20084;SDS011;10202;48.474;9.138;2023-11-18T05:25:36;1.65;;;1.50;;
20084;SDS011;10202;48.474;9.138;2023-11-18T05:28:05;1.35;;;1.25;;
20084;SDS011;10202;48.474;9.138;2023-11-18T05:30:34;3.45;;;1.60;;
20084;SDS011;10202;48.474;9.138;2023-11-18T05:33:01;1.98;;;1.60;;
20084;SDS011;10202;48.474;9.138;2023-11-18T05:35:31;5.40;;;1.58;;
20084;SDS011;10202;48.474;9.138;2023-11-18T05:37:58;1.85;;;1.50;;
20084;SDS011;10202;48.474;9.138;2023-11-18T05:40:23;1.48;;;1.30;;
20084;SDS011;10202;48.474;9.138;2023-11-18T05:42:50;3.10;;;1.48;;
20084;SDS011;10202;48.474;9.138;2023-11-18T05:45:17;3.33;;;1.50;;
20084;SDS011;10202;48.474;9.138;2023-11-18T05:47:56;1.65;;;1.40;;
20084;SDS011;10202;48.474;9.138;2023-11-18T05:50:22;1.50;;;1.40;;
20084;SDS011;10202;48.474;9.138;2023-11-18T05:52:49;1.25;;;1.05;;
20084;SDS011;10202;48.474;9.138;2023-11-18T05:55:15;3.05;;;1.88;;
20084;SDS011;10202;48.474;9.138;2023-11-18T05:57:41;1.40;;;1.27;;
20084;SDS011;10202;48.474;9.138;2023-11-18T06:00:11;1.77;;;1.48;;
20084;SDS011;10202;48.474;9.138;2023-11-18T06:02:40;1.92;;;1.40;;
20084;SDS011;10202;48.474;9.138;2023-11-18T06:05:06;3.55;;;1.60;;
20084;SDS011;10202;48.474;9.138;2023-11-18T06:07:33;2.58;;;1.40;;
20084;SDS011;10202;48.474;9.138;2023-11-18T06:09:59;2.03;;;1.23;;
20084;SDS011;10202;48.474;9.138;2023-11-18T06:12:25;2.25;;;1.50;;
20084;SDS011;10202;48.474;9.138;2023-11-18T06:14:52;6.13;;;2.95;;
20084;SDS011;10202;48.474;9.138;2023-11-18T06:17:17;3.00;;;2.20;;
20084;SDS011;10202;48.474;9.138;2023-11-18T06:19:44;2.67;;;2.10;;
20084;SDS011;10202;48.474;9.138;2023-11-18T06:22:09;5.20;;;2.80;;
20084;SDS011;10202;48.474;9.138;2023-11-18T06:24:37;2.45;;;2.00;;
20084;SDS011;10202;48.474;9.138;2023-11-18T06:27:04;3.95;;;1.90;;
20084;SDS011;10202;48.474;9.138;2023-11-18T06:29:30;2.58;;;1.95;;
20084;SDS011;10202;48.474;9.138;2023-11-18T06:31:56;2.50;;;1.70;;
20084;SDS011;10202;48.474;9.138;2023-11-18T06:34:23;1.52;;;1.33;;
20084;SDS011;10202;48.474;9.138;2023-11-18T06:36:49;2.13;;;1.50;;
20084;SDS011;10202;48.474;9.138;2023-11-18T06:39:14;1.92;;;1.70;;
20084;SDS011;10202;48.474;9.138;2023-11-18T06:41:41;1.90;;;1.60;;
20084;SDS011;10202;48.474;9.138;2023-11-18T06:44:14;2.42;;;1.80;;
20084;SDS011;10202;48.474;9.138;2023-11-18T06:46:43;2.17;;;1.70;;
20084;SDS011;10202;48.474;9.138;2023-11-18T06:49:09;2.38;;;2.15;;
20084;SDS011;10202;48.474;9.138;2023-11-18T06:51:40;3.38;;;2.15;;
20084;SDS011;10202;48.474;9.138;2023-11-18T06:54:06;3.80;;;2.40;;
20084;SDS011;10202;48.474;9.138;2023-11-18T06:56:38;4.53;;;2.72;;
20084;SDS011;10202;48.474;9.138;2023-11-18T06:59:11;4.68;;;3.10;;
20084;SDS011;10202;48.474;9.138;2023-11-18T07:01:43;3.95;;;3.20;;
20084;SDS011;10202;48.474;9.138;2023-11-18T07:04:09;5.05;;;3.22;;
20084;SDS011;10202;48.474;9.138;2023-11-18T07:06:37;10.02;;;3.80;;
20084;SDS011;10202;48.474;9.138;2023-11-18T07:09:06;6.13;;;3.95;;
20084;SDS011;10202;48.474;9.138;2023-11-18T07:11:44;7.70;;;3.80;;
20084;SDS011;10202;48.474;9.138;2023-11-18T07:14:11;6.93;;;4.97;;
20084;SDS011;10202;48.474;9.138;2023-11-18T07:16:37;8.52;;;5.32;;
20084;SDS011;10202;48.474;9.138;2023-11-18T07:19:04;4.72;;;3.65;;
20084;SDS011;10202;48.474;9.138;2023-11-18T07:21:29;6.22;;;4.85;;
20084;SDS011;10202;48.474;9.138;2023-11-18T07:23:55;5.95;;;4.10;;
20084;SDS011;10202;48.474;9.138;2023-11-18T07:26:21;3.97;;;2.92;;
20084;SDS011;10202;48.474;9.138;2023-11-18T07:28:47;3.17;;;2.58;;
20084;SDS011;10202;48.474;9.138;2023-11-18T07:31:14;2.50;;;2.25;;
20084;SDS011;10202;48.474;9.138;2023-11-18T07:33:43;2.92;;;2.10;;
20084;SDS011;10202;48.474;9.138;2023-11-18T07:36:14;5.10;;;2.72;;
20084;SDS011;10202;48.474;9.138;2023-11-18T07:38:41;2.58;;;2.00;;
20084;SDS011;10202;48.474;9.138;2023-11-18T07:41:06;2.63;;;2.20;;
20084;SDS011;10202;48.474;9.138;2023-11-18T07:43:35;2.75;;;1.90;;
20084;SDS011;10202;48.474;9.138;2023-11-18T07:46:05;2.42;;;1.80;;
20084;SDS011;10202;48.474;9.138;2023-11-18T07:48:33;2.35;;;1.98;;
20084;SDS011;10202;48.474;9.138;2023-11-18T07:51:00;2.10;;;1.90;;
20084;SDS011;10202;48.474;9.138;2023-11-18T07:53:27;2.67;;;2.40;;
20084;SDS011;10202;48.474;9.138;2023-11-18T07:55:54;3.28;;;2.15;;
20084;SDS011;10202;48.474;9.138;2023-11-18T07:58:20;3.00;;;2.45;;
20084;SDS011;10202;48.474;9.138;2023-11-18T08:00:48;2.58;;;2.08;;
20084;SDS011;10202;48.474;9.138;2023-11-18T08:03:16;3.10;;;2.20;;
20084;SDS011;10202;48.474;9.138;2023-11-18T08:05:45;4.43;;;2.70;;
20084;SDS011;10202;48.474;9.138;2023-11-18T08:08:14;2.85;;;2.10;;
20084;SDS011;10202;48.474;9.138;2023-11-18T08:10:42;4.32;;;2.20;;
20084;SDS011;10202;48.474;9.138;2023-11-18T08:13:11;1.98;;;1.77;;
20084;SDS011;10202;48.474;9.138;2023-11-18T08:15:38;2.60;;;2.10;;
20084;SDS011;10202;48.474;9.138;2023-11-18T08:18:05;3.38;;;2.10;;
20084;SDS011;10202;48.474;9.138;2023-11-18T08:20:31;3.30;;;2.33;;
20084;SDS011;10202;48.474;9.138;2023-11-18T08:22:57;2.40;;;2.20;;
20084;SDS011;10202;48.474;9.138;2023-11-18T08:25:22;3.28;;;2.55;;
20084;SDS011;10202;48.474;9.138;2023-11-18T08:27:50;3.08;;;2.10;;
20084;SDS011;10202;48.474;9.138;2023-11-18T08:30:18;3.40;;;2.42;;
20084;SDS011;10202;48.474;9.138;2023-11-18T08:32:46;3.45;;;2.42;;
20084;SDS011;10202;48.474;9.138;2023-11-18T08:35:12;3.97;;;2.83;;
20084;SDS011;10202;48.474;9.138;2023-11-18T08:37:44;5.78;;;2.53;;
20084;SDS011;10202;48.474;9.138;2023-11-18T08:40:11;5.13;;;2.67;;
20084;SDS011;10202;48.474;9.138;2023-11-18T08:42:51;5.85;;;3.25;;
20084;SDS011;10202;48.474;9.138;2023-11-18T08:45:24;5.78;;;3.42;;
20084;SDS011;10202;48.474;9.138;2023-11-18T08:48:01;5.05;;;3.05;;
20084;SDS011;10202;48.474;9.138;2023-11-18T08:50:32;5.60;;;3.80;;
20084;SDS011;10202;48.474;9.138;2023-11-18T08:53:05;6.57;;;3.25;;
20084;SDS011;10202;48.474;9.138;2023-11-18T08:55:31;5.22;;;2.95;;
20084;SDS011;10202;48.474;9.138;2023-11-18T08:58:15;3.85;;;2.80;;
20084;SDS011;10202;48.474;9.138;2023-11-18T09:00:50;4.63;;;2.60;;
20084;SDS011;10202;48.474;9.138;2023-11-18T09:06:09;2.55;;;2.20;;
20084;SDS011;10202;48.474;9.138;2023-11-18T09:08:50;4.93;;;2.50;;
20084;SDS011;10202;48.474;9.138;2023-11-18T09:11:20;3.42;;;2.58;;
20084;SDS011;10202;48.474;9.138;2023-11-18T09:13:47;4.38;;;2.60;;
20084;SDS011;10202;48.474;9.138;2023-11-18T09:16:35;5.82;;;2.80;;
20084;SDS011;10202;48.474;9.138;2023-11-18T09:19:04;7.85;;;3.63;;
20084;SDS011;10202;48.474;9.138;2023-11-18T09:21:33;4.25;;;2.92;;
20084;SDS011;10202;48.474;9.138;2023-11-18T09:24:01;3.08;;;2.42;;
20084;SDS011;10202;48.474;9.138;2023-11-18T09:26:30;9.55;;;2.95;;
20084;SDS011;10202;48.474;9.138;2023-11-18T09:28:56;3.60;;;2.45;;
20084;SDS011;10202;48.474;9.138;2023-11-18T09:31:23;3.35;;;2.28;;
20084;SDS011;10202;48.474;9.138;2023-11-18T09:33:48;3.28;;;2.47;;
20084;SDS011;10202;48.474;9.138;2023-11-18T09:36:17;5.50;;;2.92;;
20084;SDS011;10202;48.474;9.138;2023-11-18T09:38:43;4.00;;;2.97;;
20084;SDS011;10202;48.474;9.138;2023-11-18T09:41:12;4.30;;;2.97;;
20084;SDS011;10202;48.474;9.138;2023-11-18T09:43:38;7.18;;;3.25;;
20084;SDS011;10202;48.474;9.138;2023-11-18T09:46:14;5.25;;;3.35;;
20084;SDS011;10202;48.474;9.138;2023-11-18T09:48:51;7.38;;;4.18;;
20084;SDS011;10202;48.474;9.138;2023-11-18T09:51:28;8.52;;;4.47;;
20084;SDS011;10202;48.474;9.138;2023-11-18T09:54:04;7.55;;;3.83;;
20084;SDS011;10202;48.474;9.138;2023-11-18T09:59:17;7.50;;;4.30;;
20084;SDS011;10202;48.474;9.138;2023-11-18T10:01:53;9.65;;;6.03;;
20084;SDS011;10202;48.474;9.138;2023-11-18T10:04:27;17.00;;;6.88;;
20084;SDS011;10202;48.474;9.138;2023-11-18T10:06:59;14.63;;;7.00;;
20084;SDS011;10202;48.474;9.138;2023-11-18T10:09:27;13.88;;;7.45;;
20084;SDS011;10202;48.474;9.138;2023-11-18T10:12:07;22.20;;;10.60;;
20084;SDS011;10202;48.474;9.138;2023-11-18T10:14:41;9.18;;;4.78;;
20084;SDS011;10202;48.474;9.138;2023-11-18T10:17:08;7.57;;;4.30;;
20084;SDS011;10202;48.474;9.138;2023-11-18T10:22:25;11.45;;;5.25;;
20084;SDS011;10202;48.474;9.138;2023-11-18T10:24:51;10.98;;;5.38;;
20084;SDS011;10202;48.474;9.138;2023-11-18T10:27:28;7.15;;;4.35;;
20084;SDS011;10202;48.474;9.138;2023-11-18T10:32:29;5.38;;;3.53;;
20084;SDS011;10202;48.474;9.138;2023-11-18T10:35:00;5.05;;;3.00;;
20084;SDS011;10202;48.474;9.138;2023-11-18T10:37:26;3.72;;;2.80;;
20084;SDS011;10202;48.474;9.138;2023-11-18T10:39:55;5.75;;;2.70;;
20084;SDS011;10202;48.474;9.138;2023-11-18T10:42:25;8.23;;;2.67;;
20084;SDS011;10202;48.474;9.138;2023-11-18T10:44:58;3.97;;;2.90;;
20084;SDS011;10202;48.474;9.138;2023-11-18T10:47:24;3.10;;;2.00;;
20084;SDS011;10202;48.474;9.138;2023-11-18T10:49:56;3.33;;;2.20;;
20084;SDS011;10202;48.474;9.138;2023-11-18T10:52:22;2.45;;;2.13;;
20084;SDS011;10202;48.474;9.138;2023-11-18T10:54:52;2.88;;;2.25;;
20084;SDS011;10202;48.474;9.138;2023-11-18T10:57:26;6.90;;;2.30;;
20084;SDS011;10202;48.474;9.138;2023-11-18T10:59:58;4.30;;;2.50;;
20084;SDS011;10202;48.474;9.138;2023-11-18T11:02:42;5.70;;;3.38;;
20084;SDS011;10202;48.474;9.138;2023-11-18T11:05:10;4.20;;;3.13;;
20084;SDS011;10202;48.474;9.138;2023-11-18T11:07:44;3.95;;;2.97;;
20084;SDS011;10202;48.474;9.138;2023-11-18T11:10:10;3.78;;;2.55;;
20084;SDS011;10202;48.474;9.138;2023-11-18T11:13:12;5.07;;;2.22;;
20084;SDS011;10202;48.474;9.138;2023-11-18T11:15:31;3.20;;;2.50;;
20084;SDS011;10202;48.474;9.138;2023-11-18T11:18:03;5.07;;;2.50;;
20084;SDS011;10202;48.474;9.138;2023-11-18T11:20:34;17.17;;;8.52;;
20084;SDS011;10202;48.474;9.138;2023-11-18T11:26:08;9.90;;;5.32;;
20084;SDS011;10202;48.474;9.138;2023-11-18T11:31:39;8.40;;;4.75;;
20084;SDS011;10202;48.474;9.138;2023-11-18T11:34:09;5.95;;;3.55;;
20084;SDS011;10202;48.474;9.138;2023-11-18T11:36:44;4.13;;;2.83;;
20084;SDS011;10202;48.474;9.138;2023-11-18T11:39:18;5.13;;;3.00;;
20084;SDS011;10202;48.474;9.138;2023-11-18T11:41:51;4.28;;;2.30;;
20084;SDS011;10202;48.474;9.138;2023-11-18T11:44:17;7.43;;;3.88;;
20084;SDS011;10202;48.474;9.138;2023-11-18T11:46:45;8.55;;;3.30;;
20084;SDS011;10202;48.474;9.138;2023-11-18T11:49:18;4.40;;;2.35;;
20084;SDS011;10202;48.474;9.138;2023-11-18T11:51:52;3.75;;;2.70;;
20084;SDS011;10202;48.474;9.138;2023-11-18T11:54:27;4.17;;;2.50;;
20084;SDS011;10202;48.474;9.138;2023-11-18T11:56:59;4.82;;;2.55;;
20084;SDS011;10202;48.474;9.138;2023-11-18T11:59:34;5.15;;;2.88;;
20084;SDS011;10202;48.474;9.138;2023-11-18T12:02:21;4.53;;;1.95;;
20084;SDS011;10202;48.474;9.138;2023-11-18T12:04:51;4.57;;;2.70;;
20084;SDS011;10202;48.474;9.138;2023-11-18T12:07:22;4.18;;;2.40;;
20084;SDS011;10202;48.474;9.138;2023-11-18T12:09:49;3.38;;;2.25;;
20084;SDS011;10202;48.474;9.138;2023-11-18T12:12:20;3.83;;;2.60;;
20084;SDS011;10202;48.474;9.138;2023-11-18T12:17:27;4.45;;;2.20;;
20084;SDS011;10202;48.474;9.138;2023-11-18T12:19:59;3.03;;;2.40;;
20084;SDS011;10202;48.474;9.138;2023-11-18T12:22:25;3.40;;;2.08;;
20084;SDS011;10202;48.474;9.138;2023-11-18T12:30:05;4.07;;;2.47;;
20084;SDS011;10202;48.474;9.138;2023-11-18T12:35:21;6.32;;;3.33;;
20084;SDS011;10202;48.474;9.138;2023-11-18T12:37:58;5.95;;;2.65;;
20084;SDS011;10202;48.474;9.138;2023-11-18T12:43:17;4.75;;;3.25;;
20084;SDS011;10202;48.474;9.138;2023-11-18T12:46:12;4.45;;;3.03;;
20084;SDS011;10202;48.474;9.138;2023-11-18T12:48:45;6.57;;;3.80;;
20084;SDS011;10202;48.474;9.138;2023-11-18T12:51:14;6.70;;;3.53;;
20084;SDS011;10202;48.474;9.138;2023-11-18T12:53:47;5.15;;;3.30;;
20084;SDS011;10202;48.474;9.138;2023-11-18T12:56:21;6.88;;;3.60;;
20084;SDS011;10202;48.474;9.138;2023-11-18T12:58:48;2.55;;;1.90;;
20084;SDS011;10202;48.474;9.138;2023-11-18T13:01:16;4.93;;;2.03;;
20084;SDS011;10202;48.474;9.138;2023-11-18T13:03:43;5.32;;;1.80;;
20084;SDS011;10202;48.474;9.138;2023-11-18T13:06:09;3.45;;;2.28;;
20084;SDS011;10202;48.474;9.138;2023-11-18T13:08:37;4.10;;;2.55;;
20084;SDS011;10202;48.474;9.138;2023-11-18T13:11:03;4.90;;;2.22;;
20084;SDS011;10202;48.474;9.138;2023-11-18T13:13:37;2.45;;;1.77;;
20084;SDS011;10202;48.474;9.138;2023-11-18T13:16:05;2.13;;;1.52;;
20084;SDS011;10202;48.474;9.138;2023-11-18T13:18:52;3.28;;;1.48;;
20084;SDS011;10202;48.474;9.138;2023-11-18T13:21:20;2.47;;;1.55;;
20084;SDS011;10202;48.474;9.138;2023-11-18T13:23:49;1.52;;;1.40;;
20084;SDS011;10202;48.474;9.138;2023-11-18T13:26:20;2.63;;;1.25;;
20084;SDS011;10202;48.474;9.138;2023-11-18T13:28:46;2.35;;;1.83;;
20084;SDS011;10202;48.474;9.138;2023-11-18T13:31:12;3.42;;;2.42;;
20084;SDS011;10202;48.474;9.138;2023-11-18T13:33:46;6.55;;;3.67;;
20084;SDS011;10202;48.474;9.138;2023-11-18T13:36:13;5.75;;;3.53;;
20084;SDS011;10202;48.474;9.138;2023-11-18T13:38:39;6.20;;;3.42;;
20084;SDS011;10202;48.474;9.138;2023-11-18T13:41:06;7.57;;;4.35;;
20084;SDS011;10202;48.474;9.138;2023-11-18T13:43:44;5.25;;;3.53;;
20084;SDS011;10202;48.474;9.138;2023-11-18T13:46:17;4.70;;;3.22;;
20084;SDS011;10202;48.474;9.138;2023-11-18T13:48:49;4.70;;;3.58;;
20084;SDS011;10202;48.474;9.138;2023-11-18T13:51:15;9.77;;;4.38;;
20084;SDS011;10202;48.474;9.138;2023-11-18T13:53:41;3.15;;;2.30;;
20084;SDS011;10202;48.474;9.138;2023-11-18T13:56:09;4.90;;;2.50;;
20084;SDS011;10202;48.474;9.138;2023-11-18T13:58:36;4.20;;;2.05;;
20084;SDS011;10202;48.474;9.138;2023-11-18T14:01:06;4.43;;;2.15;;
20084;SDS011;10202;48.474;9.138;2023-11-18T14:03:36;10.48;;;1.98;;
20084;SDS011;10202;48.474;9.138;2023-11-18T14:06:07;7.80;;;2.30;;
20084;SDS011;10202;48.474;9.138;2023-11-18T14:08:38;4.32;;;1.40;;
20084;SDS011;10202;48.474;9.138;2023-11-18T14:11:05;5.15;;;1.65;;
20084;SDS011;10202;48.474;9.138;2023-11-18T14:13:31;7.97;;;2.25;;
20084;SDS011;10202;48.474;9.138;2023-11-18T14:16:00;3.35;;;2.17;;
20084;SDS011;10202;48.474;9.138;2023-11-18T14:18:26;3.65;;;1.63;;
20084;SDS011;10202;48.474;9.138;2023-11-18T14:20:52;2.80;;;1.52;;
20084;SDS011;10202;48.474;9.138;2023-11-18T14:23:18;1.17;;;1.08;;
20084;SDS011;10202;48.474;9.138;2023-11-18T14:25:44;4.15;;;1.15;;
20084;SDS011;10202;48.474;9.138;2023-11-18T14:28:12;1.52;;;1.40;;
20084;SDS011;10202;48.474;9.138;2023-11-18T14:30:38;3.58;;;1.25;;
20084;SDS011;10202;48.474;9.138;2023-11-18T14:33:03;3.03;;;1.20;;
20084;SDS011;10202;48.474;9.138;2023-11-18T14:35:32;2.45;;;1.20;;
20084;SDS011;10202;48.474;9.138;2023-11-18T14:37:59;2.55;;;1.10;;
20084;SDS011;10202;48.474;9.138;2023-11-18T14:40:26;1.88;;;1.10;;
20084;SDS011;10202;48.474;9.138;2023-11-18T14:42:53;2.88;;;1.25;;
20084;SDS011;10202;48.474;9.138;2023-11-18T14:45:19;1.77;;;1.00;;
20084;SDS011;10202;48.474;9.138;2023-11-18T14:47:45;1.00;;;0.93;;
20084;SDS011;10202;48.474;9.138;2023-11-18T14:50:13;1.52;;;1.25;;
20084;SDS011;10202;48.474;9.138;2023-11-18T14:52:45;1.60;;;0.93;;
20084;SDS011;10202;48.474;9.138;2023-11-18T14:55:16;3.53;;;1.10;;
20084;SDS011;10202;48.474;9.138;2023-11-18T14:57:42;1.40;;;1.20;;
20084;SDS011;10202;48.474;9.138;2023-11-18T15:00:09;4.38;;;1.60;;
20084;SDS011;10202;48.474;9.138;2023-11-18T15:02:47;3.13;;;1.02;;
20084;SDS011;10202;48.474;9.138;2023-11-18T15:05:17;4.72;;;2.70;;
20084;SDS011;10202;48.474;9.138;2023-11-18T15:08:01;3.25;;;1.77;;
20084;SDS011;10202;48.474;9.138;2023-11-18T15:10:27;2.03;;;1.00;;
20084;SDS011;10202;48.474;9.138;2023-11-18T15:12:54;2.30;;;1.63;;
20084;SDS011;10202;48.474;9.138;2023-11-18T15:15:23;11.98;;;5.90;;
20084;SDS011;10202;48.474;9.138;2023-11-18T15:17:57;5.63;;;2.88;;
20084;SDS011;10202;48.474;9.138;2023-11-18T15:20:24;3.08;;;1.98;;
20084;SDS011;10202;48.474;9.138;2023-11-18T15:22:50;3.90;;;1.40;;
20084;SDS011;10202;48.474;9.138;2023-11-18T15:25:16;1.77;;;1.23;;
20084;SDS011;10202;48.474;9.138;2023-11-18T15:27:44;1.50;;;1.20;;
20084;SDS011;10202;48.474;9.138;2023-11-18T15:30:12;2.83;;;1.02;;
20084;SDS011;10202;48.474;9.138;2023-11-18T15:32:42;2.97;;;1.40;;